Latest Weather Observations for Camden

IDN60901

Issued at 2:11 pm EST Wednesday 24 August 2016 (issued every 10 minutes, with the page automatically refreshed every 10 minutes)

About weather observations | Map of Sydney area stations | Latest observations for Sydney area | Other Formats
Station Details ID: 068192 Name: CAMDEN AIRPORT AWS Lat: -34.04 Lon: 150.69 Height: 73.9 m
Data from the previous 72 hours. | See also: Recent months at Camden
Date/Time
EST
Temp
°C
App
Temp
°C
Dew
Point
°C
Rel
Hum
%
Delta-T
°C
Wind Press
QNH
hPa
Press
MSL
hPa
Rain since
9am
mm
Dir  Spd
km/h
Gust
km/h
Spd
kts
Gust
kts
24/02:04pm 11.5 9.3 10.7 95 0.4 SSW 13 20 7 11 1009.0 1009.0 3.8
24/02:00pm 11.6 9.4 10.8 95 0.4 SSW 13 20 7 11 1009.1 1009.2 3.8
24/01:30pm 11.5 9.7 10.7 95 0.4 SW 11 15 6 8 1009.4 1009.5 3.0
24/01:20pm 11.5 10.0 10.6 94 0.5 SW 9 13 5 7 1009.5 1009.6 2.6
24/01:03pm 11.5 10.0 10.4 93 0.6 SW 9 13 5 7 1009.7 1009.8 2.4
24/01:00pm 11.6 10.0 10.3 92 0.7 SW 9 15 5 8 1009.7 1009.8 2.2
24/12:49pm 11.8 9.7 9.9 88 1.0 SW 11 15 6 8 1009.9 1010.0 1.8
24/12:30pm 11.9 9.5 10.0 88 1.0 SSW 13 19 7 10 1010.2 1010.3 1.6
24/12:00pm 11.8 8.5 9.5 86 1.2 S 17 26 9 14 1010.8 1010.9 1.4
24/11:30am 12.2 9.7 9.8 85 1.2 S 13 19 7 10 1011.3 1011.4 1.4
24/11:00am 12.3 11.1 10.2 87 1.1 SSE 7 11 4 6 1012.3 1012.4 1.4
24/10:41am 12.2 12.1 9.6 84 1.3 CALM 0 0 0 0 1012.9 1013.0 1.2
24/10:30am 12.2 12.0 9.2 82 1.5 CALM 0 0 0 0 1013.4 1013.5 1.0
24/10:25am 12.1 11.9 9.1 82 1.5 CALM 0 0 0 0 1013.4 1013.5 0.8
24/10:00am 12.1 10.7 8.9 81 1.6 SW 6 9 3 5 1013.7 1013.8 0.2
24/09:30am 12.4 10.6 8.1 75 2.1 SSW 7 9 4 5 1013.5 1013.6 0.0
24/09:00am 12.3 12.0 8.6 78 1.8 CALM 0 0 0 0 1013.9 1014.0 0.0
24/08:30am 11.6 11.3 8.6 82 1.5 CALM 0 0 0 0 1014.0 1014.1 0.0
24/08:00am 11.7 11.4 8.6 81 1.5 CALM 0 0 0 0 1014.0 1014.1 0.0
24/07:30am 11.3 9.6 8.2 81 1.5 SW 7 9 4 5 1013.8 1013.9 0.0
24/07:00am 10.9 9.1 8.1 83 1.4 SW 7 9 4 5 1013.7 1013.8 0.0
24/06:30am 11.1 9.3 8.1 82 1.5 SW 7 9 4 5 1013.9 1014.0 0.0
24/06:00am 11.1 9.0 8.3 83 1.4 SSW 9 11 5 6 1013.9 1014.0 0.0
24/05:30am 10.6 9.1 8.4 86 1.1 SW 6 7 3 4 1013.9 1014.0 0.0
24/05:00am 10.5 9.4 8.3 86 1.1 SW 4 6 2 3 1014.4 1014.5 0.0
24/04:30am 10.4 9.6 8.0 85 1.2 S 2 7 1 4 1014.2 1014.3 0.0
24/04:00am 10.4 8.6 8.0 85 1.2 SSW 7 9 4 5 1014.1 1014.2 0.0
24/03:30am 10.5 8.9 7.9 84 1.3 WSW 6 11 3 6 1014.6 1014.7 0.0
24/03:00am 10.3 9.8 7.9 85 1.2 CALM 0 0 0 0 1015.0 1015.1 0.0
24/02:30am 10.6 9.3 7.8 83 1.4 WSW 4 6 2 3 1015.6 1015.6 0.0
24/02:00am 10.7 8.9 7.2 79 1.7 S 6 7 3 4 1015.2 1015.3 0.0
24/01:30am 10.4 8.6 7.3 81 1.5 S 6 7 3 4 1015.2 1015.3 0.0
24/01:00am 10.7 8.8 7.6 81 1.5 SW 7 9 4 5 1015.7 1015.7 0.0
24/12:30am 10.5 10.0 7.7 83 1.4 CALM 0 0 0 0 1015.8 1015.8 0.0
24/12:00am 10.3 9.9 8.2 87 1.0 CALM 0 0 0 0 1016.2 1016.2 0.0
 
Date/Time
EST
Temp
°C
App
Temp
°C
Dew
Point
°C
Rel
Hum
%
Delta-T
°C
Wind Press
QNH
hPa
Press
MSL
hPa
Rain since
9am
mm
Dir  Spd
km/h
Gust
km/h
Spd
kts
Gust
kts
23/11:30pm 10.4 9.8 7.6 83 1.3 CALM 0 0 0 0 1016.1 1016.1 0.0
23/11:00pm 10.8 10.1 6.9 77 1.9 CALM 0 0 0 0 1016.3 1016.3 0.0
23/10:30pm 10.7 10.2 7.8 82 1.4 CALM 0 0 0 0 1016.5 1016.5 0.0
23/10:00pm 10.8 10.0 8.0 83 1.4 W 2 7 1 4 1016.4 1016.4 0.0
23/09:30pm 11.2 9.3 6.9 75 2.1 S 6 11 3 6 1015.9 1015.9 0.0
23/09:00pm 11.2 9.4 7.3 77 1.9 SSW 6 9 3 5 1016.3 1016.3 0.0
23/08:30pm 11.5 10.9 7.6 77 1.9 CALM 0 0 0 0 1016.4 1016.4 0.0
23/08:00pm 12.1 11.4 6.8 70 2.5 CALM 0 0 0 0 1016.5 1016.5 0.0
23/07:30pm 12.7 11.9 6.3 65 3.0 CALM 0 0 0 0 1016.6 1016.6 0.0
23/07:00pm 12.9 12.1 6.5 65 3.1 CALM 0 0 0 0 1016.4 1016.4 0.0
23/06:30pm 13.1 12.2 6.2 63 3.3 CALM 0 0 0 0 1016.2 1016.2 0.0
23/06:00pm 13.5 11.3 5.2 57 3.9 SSE 6 11 3 6 1016.0 1016.0 0.0
23/05:30pm 14.0 11.7 5.9 58 3.9 S 7 9 4 5 1015.5 1015.5 0.0
23/05:00pm 14.6 12.3 5.9 56 4.2 S 7 9 4 5 1015.2 1015.3 0.0
23/04:30pm 15.2 12.1 5.4 52 4.7 SSE 11 17 6 9 1014.0 1014.1 0.0
23/04:00pm 15.5 13.4 6.5 55 4.4 SE 7 9 4 5 1014.3 1014.4 0.0
23/03:30pm 15.5 12.5 6.0 53 4.6 SSE 11 15 6 8 1014.1 1014.2 0.0
23/03:00pm 15.7 12.6 5.6 51 4.8 SSE 11 17 6 9 1013.1 1013.2 0.0
23/02:30pm 16.0 12.7 6.4 53 4.7 SSE 13 19 7 10 1013.3 1013.4 0.0
23/02:00pm 15.5 11.7 5.7 52 4.7 SSE 15 22 8 12 1013.4 1013.5 0.0
23/01:30pm 16.6 13.8 5.3 47 5.4 SW 9 15 5 8 1013.5 1013.6 0.0
23/01:00pm 16.7 13.2 5.3 47 5.5 SSW 13 19 7 10 1013.9 1014.0 0.0
23/12:30pm 16.5 12.7 5.8 49 5.2 SSW 15 24 8 13 1013.8 1013.9 0.0
23/12:00pm 15.7 10.9 5.6 51 4.8 SW 20 26 11 14 1014.4 1014.5 0.0
23/11:30am 15.4 10.8 5.6 52 4.7 SSW 19 26 10 14 1014.7 1014.8 0.0
23/11:00am 14.4 9.8 5.5 55 4.2 SSW 19 30 10 16 1015.0 1015.1 0.0
23/10:30am 14.6 10.5 6.2 57 4.1 WSW 17 22 9 12 1015.3 1015.4 0.0
23/10:00am 14.2 10.7 7.0 62 3.5 WSW 15 20 8 11 1015.0 1015.1 0.0
23/09:30am 13.3 11.0 7.5 68 2.8 W 9 13 5 7 1015.0 1015.1 0.0
23/09:00am 11.9 9.9 8.7 81 1.6 NNW 9 13 5 7 1014.3 1014.4 3.2
23/08:30am 9.1 8.1 7.5 90 0.8 ESE 2 6 1 3 1013.3 1013.4 3.2
23/08:00am 7.2 6.5 7.1 99 0.0 CALM 0 0 0 0 1013.8 1013.9 3.2
23/07:41am 5.5 4.5 5.4 99 0.0 CALM 0 0 0 0 1013.6 1013.7 3.2
23/07:30am 4.7 2.7 4.6 99 0.0 SSE 4 9 2 5 1013.5 1013.6 3.2
23/07:00am 2.7 1.1 2.6 99 0.0 CALM 0 0 0 0 1013.2 1013.3 3.2
23/06:30am 2.9 1.4 2.8 99 0.0 CALM 0 0 0 0 1013.0 1013.1 3.2
23/06:00am 3.0 0.7 2.9 99 0.0 S 4 9 2 5 1012.8 1012.9 3.2
23/05:30am 3.3 0.7 3.2 99 0.0 SSE 6 9 3 5 1012.3 1012.4 3.2
23/05:00am 3.2 1.3 3.1 99 0.0 ENE 2 7 1 4 1012.2 1012.3 3.2
23/04:30am 3.7 2.3 3.6 99 0.0 CALM 0 0 0 0 1012.1 1012.2 3.2
23/04:00am 4.6 3.4 4.5 99 0.0 CALM 0 0 0 0 1011.8 1011.9 3.2
23/03:30am 4.9 3.7 4.8 99 0.0 CALM 0 0 0 0 1011.7 1011.8 3.2
23/03:00am 5.6 4.6 5.5 99 0.0 CALM 0 0 0 0 1011.7 1011.8 3.2
23/02:30am 5.5 3.7 5.4 99 0.0 N 4 9 2 5 1011.6 1011.7 3.2
23/02:11am 6.3 5.4 6.2 99 0.0 CALM 0 0 0 0 1011.7 1011.8 3.2
23/02:05am 6.6 5.8 6.5 99 0.0 CALM 0 0 0 0 1011.8 1011.9 3.2
23/02:00am 6.6 5.8 6.5 99 0.0 CALM 0 0 0 0 1011.8 1011.9 3.2
23/01:39am 6.1 5.2 6.0 99 0.0 CALM 0 4 0 2 1012.3 1012.4 3.2
23/01:30am 6.5 4.9 6.4 99 0.0 N 4 7 2 4 1012.4 1012.5 3.2
23/01:03am 6.7 4.6 6.6 99 0.0 NW 7 9 4 5 1012.7 1012.8 3.2
23/01:00am 6.6 4.5 6.5 99 0.0 NW 7 9 4 5 1012.6 1012.7 3.2
23/12:30am 6.5 4.3 6.4 99 0.0 E 7 15 4 8 1012.7 1012.8 3.2
23/12:00am 7.1 6.0 6.8 98 0.1 WSW 2 7 1 4 1012.7 1012.8 3.2
 
Date/Time
EST
Temp
°C
App
Temp
°C
Dew
Point
°C
Rel
Hum
%
Delta-T
°C
Wind Press
QNH
hPa
Press
MSL
hPa
Rain since
9am
mm
Dir  Spd
km/h
Gust
km/h
Spd
kts
Gust
kts
22/11:30pm 7.4 6.7 6.8 96 0.3 CALM 0 0 0 0 1012.8 1012.9 3.2
22/11:16pm 7.7 7.1 7.3 97 0.2 CALM 0 0 0 0 1012.9 1013.0 3.2
22/11:00pm 8.0 7.4 7.6 97 0.2 CALM 0 0 0 0 1012.9 1013.0 3.2
22/10:30pm 8.5 8.0 7.9 96 0.3 CALM 0 0 0 0 1013.2 1013.3 3.2
22/10:00pm 8.7 8.3 8.3 97 0.2 CALM 0 0 0 0 1013.7 1013.8 3.0
22/09:30pm 8.6 8.1 7.8 95 0.4 CALM 0 0 0 0 1013.6 1013.7 3.0
22/09:00pm 8.8 7.1 8.5 98 0.1 NNW 7 9 4 5 1014.1 1014.2 3.0
22/08:33pm 9.0 8.8 8.9 99 0.0 CALM 0 0 0 0 1014.2 1014.3 2.0
22/08:30pm 9.0 8.8 8.9 99 0.0 CALM 0 0 0 0 1014.2 1014.3 2.0
22/08:19pm 9.0 8.8 8.9 99 0.0 CALM 0 0 0 0 1014.0 1014.1 2.0
22/08:00pm 9.0 8.7 8.6 97 0.2 CALM 0 0 0 0 1013.8 1013.9 2.0
22/07:30pm 8.9 8.6 8.5 97 0.2 CALM 0 0 0 0 1013.9 1014.0 1.8
22/07:00pm 8.9 8.5 8.3 96 0.3 CALM 0 0 0 0 1013.9 1014.0 1.8
22/06:30pm 9.1 8.7 8.2 94 0.4 CALM 0 0 0 0 1014.2 1014.3 1.8
22/06:00pm 9.3 8.9 8.2 93 0.5 CALM 0 0 0 0 1014.4 1014.5 1.4
22/05:30pm 9.4 8.1 7.8 90 0.8 NW 4 7 2 4 1013.8 1013.9 1.2
22/05:00pm 9.6 9.0 7.4 86 1.0 CALM 0 0 0 0 1013.8 1013.9 1.2
22/04:30pm 9.7 8.0 8.3 91 0.7 NNE 7 7 4 4 1014.2 1014.3 1.2
22/04:00pm 9.5 7.7 7.8 89 0.8 NNW 7 9 4 5 1014.5 1014.6 1.0
22/03:30pm 9.8 6.0 7.4 85 1.1 N 17 24 9 13 1014.7 1014.8 0.6
22/03:00pm 10.7 6.1 6.3 74 2.1 NNW 20 30 11 16 1014.8 1014.9 0.0
22/02:30pm 12.6 6.9 4.8 59 3.6 N 24 35 13 19 1014.6 1014.7 0.0
22/02:00pm 13.3 9.5 5.9 61 3.5 N 15 19 8 10 1014.6 1014.7 0.0
22/01:30pm 13.4 8.9 6.3 62 3.4 NNE 19 24 10 13 1014.7 1014.8 0.0
22/01:00pm 14.1 11.1 6.2 59 3.8 NNE 11 15 6 8 1014.9 1015.0 0.0
22/12:30pm 14.2 11.3 6.3 59 3.8 N 11 15 6 8 1015.3 1015.4 0.0
22/12:00pm 14.1 12.0 6.5 60 3.7 N 7 11 4 6 1016.0 1016.0 0.0
22/11:30am 14.2 11.6 6.3 59 3.8 NNW 9 11 5 6 1016.6 1016.6 0.0
22/11:00am 14.0 11.6 6.8 62 3.5 NNW 9 11 5 6 1016.6 1016.6 0.0
22/10:30am 13.1 12.0 7.1 67 2.9 NW 2 7 1 4 1016.8 1016.8 0.0
22/10:00am 11.7 10.9 6.6 71 2.4 CALM 0 0 0 0 1017.0 1017.0 0.0
22/09:30am 10.7 9.9 6.6 76 1.9 CALM 0 0 0 0 1017.2 1017.2 0.0
22/09:00am 9.7 8.9 6.4 80 1.5 CALM 0 0 0 0 1017.0 1017.0 0.0
22/08:30am 8.0 7.1 6.0 87 0.9 CALM 0 0 0 0 1017.2 1017.2 0.0
22/08:00am 6.4 5.3 5.2 92 0.5 CALM 0 0 0 0 1017.4 1017.4 0.0
22/07:30am 5.6 4.5 4.9 95 0.3 CALM 0 0 0 0 1017.5 1017.5 0.0
22/07:00am 5.1 3.9 4.5 96 0.3 CALM 0 0 0 0 1017.1 1017.1 0.0
22/06:30am 4.8 3.6 4.4 97 0.2 CALM 0 0 0 0 1017.2 1017.2 0.0
22/06:00am 4.7 3.5 4.4 98 0.1 CALM 0 0 0 0 1017.3 1017.3 0.0
22/05:30am 4.5 3.2 4.1 97 0.2 CALM 0 0 0 0 1017.0 1017.0 0.0
22/05:00am 4.3 2.9 3.6 95 0.3 CALM 0 0 0 0 1016.7 1016.7 0.0
22/04:30am 4.3 2.9 3.4 94 0.4 CALM 0 0 0 0 1016.3 1016.3 0.0
22/04:00am 4.4 3.0 3.7 95 0.3 CALM 0 0 0 0 1016.9 1016.9 0.0
22/03:30am 4.4 3.0 3.7 95 0.3 CALM 0 0 0 0 1017.1 1017.1 0.0
22/03:00am 4.5 3.2 3.9 96 0.3 CALM 0 0 0 0 1017.2 1017.2 0.0
22/02:30am 4.2 2.8 3.6 96 0.2 CALM 0 0 0 0 1017.4 1017.4 0.0
22/02:00am 4.1 2.7 3.5 96 0.2 CALM 0 0 0 0 1017.3 1017.3 0.0
22/01:30am 4.0 2.6 3.3 95 0.3 CALM 0 0 0 0 1017.3 1017.3 0.0
22/01:00am 4.3 2.9 3.6 95 0.3 CALM 0 0 0 0 1017.4 1017.4 0.0
22/12:52am 4.1 2.7 3.4 95 0.3 CALM 0 0 0 0 1017.4 1017.4 0.0
22/12:34am 4.5 3.1 3.6 94 0.4 CALM 0 0 0 0 1017.6 1017.6 0.0
22/12:30am 4.6 3.2 3.6 93 0.4 CALM 0 0 0 0 1017.6 1017.6 0.0
22/12:00am 5.2 4.0 4.5 95 0.3 CALM 0 0 0 0 1017.7 1017.7 0.0
 
Date/Time
EST
Temp
°C
App
Temp
°C
Dew
Point
°C
Rel
Hum
%
Delta-T
°C
Wind Press
QNH
hPa
Press
MSL
hPa
Rain since
9am
mm
Dir  Spd
km/h
Gust
km/h
Spd
kts
Gust
kts
21/11:30pm 5.5 4.3 4.5 93 0.4 CALM 0 0 0 0 1017.7 1017.7 0.0
21/11:00pm 5.9 4.6 4.2 89 0.7 CALM 0 0 0 0 1017.9 1017.9 0.0
21/10:30pm 5.8 4.5 4.0 88 0.8 CALM 0 0 0 0 1018.0 1018.0 0.0
21/10:00pm 6.9 5.6 4.2 83 1.2 CALM 0 0 0 0 1018.1 1018.1 0.0
21/09:30pm 7.1 5.9 4.6 84 1.1 CALM 0 0 0 0 1017.9 1017.9 0.0
21/09:00pm 8.7 6.1 4.3 74 1.9 S 7 9 4 5 1017.9 1017.9 0.0
21/08:30pm 8.3 6.1 3.4 71 2.1 S 4 6 2 3 1018.1 1018.1 0.0
21/08:00pm 8.3 5.8 3.9 74 1.9 SSW 6 7 3 4 1018.0 1018.0 0.0
21/07:30pm 10.6 8.4 3.4 61 3.2 S 4 7 2 4 1018.0 1018.0 0.0
21/07:00pm 12.8 11.4 3.5 53 4.2 CALM 0 0 0 0 1017.8 1017.8 0.0
21/06:30pm 13.0 11.7 4.2 55 4.0 CALM 0 0 0 0 1017.6 1017.6 0.0
21/06:00pm 13.4 10.8 3.2 50 4.6 SW 6 7 3 4 1017.0 1017.0 0.0
21/05:30pm 15.2 12.4 3.0 44 5.5 SSW 7 9 4 5 1016.9 1016.9 0.0
21/05:00pm 16.9 13.4 3.6 41 6.2 SW 11 15 6 8 1016.8 1016.8 0.0
21/04:30pm 18.1 14.2 3.2 37 6.9 SW 13 15 7 8 1016.4 1016.4 0.0
21/04:00pm 18.2 14.1 2.5 35 7.2 SW 13 17 7 9 1016.4 1016.4 0.0
21/03:30pm 18.6 13.9 3.3 36 7.2 W 17 22 9 12 1016.3 1016.3 0.0
21/03:00pm 18.9 15.5 3.9 37 7.1 W 11 20 6 11 1016.4 1016.4 0.0
21/02:30pm 18.5 14.6 3.6 37 7.0 SSW 13 20 7 11 1016.4 1016.4 0.0

Latest Capital City Observations: Canberra | Sydney | Melbourne | Brisbane | Adelaide | Perth | Hobart | Darwin

Other Formats:

Comma delimited format used in spreadsheet applications
http://www.bom.gov.au/fwo/IDN60901/IDN60901.94755.axf

JavaScript Object Notation format (JSON) in row-major order
http://www.bom.gov.au/fwo/IDN60901/IDN60901.94755.json